createdAt,value
2018-03-29T00:01:44.569Z,98406.86
2018-03-29T00:04:12.998Z,98419.69
2018-03-29T00:06:41.328Z,98419.61
2018-03-29T00:09:08.864Z,98413.91
2018-03-29T00:11:36.349Z,98424.66
2018-03-29T00:14:04.645Z,98422.64
2018-03-29T00:16:32.136Z,98431.98
2018-03-29T00:18:59.729Z,98438.42
2018-03-29T00:21:27.196Z,98444.95
2018-03-29T00:23:54.700Z,98447.15
2018-03-29T00:26:22.222Z,98452.69
2018-03-29T00:28:49.658Z,98455.78
2018-03-29T00:31:17.210Z,98452.90
2018-03-29T00:33:44.650Z,98460.52
2018-03-29T00:36:12.166Z,98470.36
2018-03-29T00:38:39.604Z,98475.19
2018-03-29T00:41:07.078Z,98471.91
2018-03-29T00:43:34.518Z,98475.36
2018-03-29T00:46:02.791Z,98474.33
2018-03-29T00:48:30.288Z,98472.16
2018-03-29T00:50:57.717Z,98482.04
2018-03-29T00:53:36.990Z,98484.41
2018-03-29T00:56:04.418Z,98491.87
2018-03-29T00:58:31.872Z,98498.89
2018-03-29T01:00:59.392Z,98505.28
2018-03-29T01:03:27.244Z,98518.59
2018-03-29T01:05:54.664Z,98508.22
2018-03-29T01:08:22.112Z,98518.12
2018-03-29T01:10:49.560Z,98529.80
2018-03-29T01:13:17.035Z,98536.80
2018-03-29T01:15:44.490Z,98544.89
2018-03-29T01:18:12.004Z,98536.35
2018-03-29T01:20:39.814Z,98548.71
2018-03-29T01:23:16.905Z,98550.44
2018-03-29T01:25:44.378Z,98568.89
2018-03-29T01:28:11.830Z,98569.20
2018-03-29T01:30:39.270Z,98574.64
2018-03-29T01:42:07.221Z,98611.96
2018-03-29T01:44:34.658Z,98630.44
2018-03-29T01:47:02.094Z,98619.84
2018-03-29T01:49:30.268Z,98619.95
2018-03-29T01:51:57.744Z,98605.69
2018-03-29T01:54:25.328Z,98613.63
2018-03-29T01:56:52.788Z,98619.67
2018-03-29T01:59:20.224Z,98633.38
2018-03-29T02:01:47.712Z,98631.08
2018-03-29T02:04:15.162Z,98630.89
2018-03-29T02:06:42.620Z,98635.95
2018-03-29T02:09:11.044Z,98639.64
2018-03-29T02:11:38.536Z,98644.92
2018-03-29T02:14:06.039Z,98658.92
2018-03-29T02:16:34.183Z,98650.28
2018-03-29T02:19:01.700Z,98660.34
2018-03-29T02:21:29.802Z,98661.06
2018-03-29T02:23:57.278Z,98672.45
2018-03-29T02:26:24.946Z,98668.38
2018-03-29T02:28:52.408Z,98677.73
2018-03-29T02:31:20.327Z,98679.35
2018-03-29T02:33:47.934Z,98689.56
2018-03-29T02:36:16.090Z,98697.02
2018-03-29T02:38:43.614Z,98700.38
2018-03-29T02:41:11.108Z,98710.06
2018-03-29T02:43:38.645Z,98714.44
2018-03-29T02:46:06.242Z,98721.73
2018-03-29T02:48:33.739Z,98723.77
2018-03-29T02:51:01.220Z,98722.66
2018-03-29T02:53:28.723Z,98729.42
2018-03-29T02:55:56.164Z,98724.80
2018-03-29T02:58:23.648Z,98728.02
2018-03-29T03:00:51.146Z,98736.00
2018-03-29T03:03:18.610Z,98732.86
2018-03-29T03:05:46.070Z,98741.68
2018-03-29T03:08:13.558Z,98739.36
2018-03-29T03:10:41.024Z,98758.80
2018-03-29T03:13:08.523Z,98759.23
2018-03-29T03:15:35.994Z,98767.20
2018-03-29T03:18:03.436Z,98779.70
2018-03-29T03:20:30.894Z,98774.07
2018-03-29T03:22:58.343Z,98794.94
2018-03-29T03:25:25.847Z,98783.97
2018-03-29T03:27:53.365Z,98791.90
2018-03-29T03:30:20.802Z,98802.26
2018-03-29T03:35:40.637Z,98811.47
2018-03-29T03:38:08.180Z,98821.38
2018-03-29T03:40:35.631Z,98841.39
2018-03-29T03:43:03.085Z,98843.72
2018-03-29T03:45:30.539Z,98851.38
2018-03-29T03:47:58.010Z,98856.10
2018-03-29T03:50:26.756Z,98860.06
2018-03-29T03:52:59.130Z,98859.34
2018-03-29T03:55:26.648Z,98876.29
2018-03-29T03:57:54.098Z,98876.55
2018-03-29T04:00:21.567Z,98876.48
2018-03-29T04:02:49.035Z,98885.87
2018-03-29T04:05:16.474Z,98891.97
2018-03-29T04:07:44.011Z,98901.98
2018-03-29T04:10:11.509Z,98905.77
2018-03-29T04:12:39.013Z,98910.79
2018-03-29T04:15:06.491Z,98922.88
2018-03-29T04:17:33.987Z,98910.69
2018-03-29T04:20:01.437Z,98933.59
2018-03-29T04:22:28.941Z,98936.13
2018-03-29T04:24:56.480Z,98926.56
2018-03-29T04:27:23.917Z,98951.52
2018-03-29T04:29:51.400Z,98947.94
2018-03-29T04:32:18.933Z,98944.74
2018-03-29T04:34:46.378Z,98957.16
2018-03-29T04:37:13.859Z,98951.11
2018-03-29T04:39:41.359Z,98965.39
2018-03-29T04:42:08.815Z,98966.89
2018-03-29T04:44:36.264Z,98966.50
2018-03-29T04:47:03.761Z,98980.44
2018-03-29T04:49:31.221Z,98982.39
2018-03-29T04:51:58.648Z,98998.41
2018-03-29T04:54:26.130Z,98996.72
2018-03-29T04:56:53.627Z,99005.74
2018-03-29T04:59:21.120Z,99001.53
2018-03-29T05:01:48.584Z,99016.70
2018-03-29T05:04:16.067Z,99014.64
2018-03-29T05:06:43.549Z,99020.45
2018-03-29T05:09:11.017Z,99015.67
2018-03-29T05:11:38.471Z,99033.08
2018-03-29T05:14:05.938Z,99026.12
2018-03-29T05:16:34.187Z,99036.63
2018-03-29T05:19:01.627Z,99037.81
2018-03-29T05:21:29.057Z,99050.49
2018-03-29T05:23:57.477Z,99058.33
2018-03-29T05:26:25.050Z,99059.64
2018-03-29T05:28:52.728Z,99056.47
2018-03-29T05:31:25.887Z,99064.68
2018-03-29T05:33:55.105Z,99070.98
2018-03-29T05:36:22.605Z,99071.31
2018-03-29T05:38:50.073Z,99070.91
2018-03-29T05:41:17.563Z,99081.31
2018-03-29T05:43:54.696Z,99079.29
2018-03-29T05:46:22.144Z,99079.24
2018-03-29T05:48:49.674Z,99081.24
2018-03-29T05:51:17.222Z,99074.00
2018-03-29T05:53:44.714Z,99083.25
2018-03-29T05:56:12.279Z,99092.63
2018-03-29T05:58:39.760Z,99090.00
2018-03-29T06:01:07.208Z,99099.69
2018-03-29T06:03:34.651Z,99088.48
2018-03-29T06:06:02.080Z,99099.85
2018-03-29T06:08:29.603Z,99109.91
2018-03-29T06:10:57.138Z,99109.77
2018-03-29T06:13:24.631Z,99108.18
2018-03-29T06:15:57.705Z,99122.81
2018-03-29T06:18:25.167Z,99124.98
2018-03-29T06:20:52.789Z,99127.03
2018-03-29T06:23:20.501Z,99125.25
2018-03-29T06:25:48.048Z,99130.40
2018-03-29T06:28:15.555Z,99138.52
2018-03-29T06:30:43.085Z,99147.00
2018-03-29T06:33:10.621Z,99149.73
2018-03-29T06:35:38.079Z,99157.86
2018-03-29T06:38:05.571Z,99159.73
2018-03-29T06:40:33.102Z,99165.63
2018-03-29T06:43:05.528Z,99161.27
2018-03-29T06:45:33.054Z,99173.40
2018-03-29T06:48:00.587Z,99177.53
2018-03-29T06:50:28.068Z,99171.69
2018-03-29T06:53:00.577Z,99189.73
2018-03-29T06:55:28.177Z,99183.38
2018-03-29T06:57:55.705Z,99172.66
2018-03-29T07:00:23.383Z,99176.92
2018-03-29T07:02:50.864Z,99185.37
2018-03-29T07:05:18.429Z,99184.83
2018-03-29T07:07:45.999Z,99185.42
2018-03-29T07:10:13.633Z,99187.50
2018-03-29T07:12:42.130Z,99192.61
2018-03-29T07:15:10.021Z,99207.63
2018-03-29T07:17:37.498Z,99200.33
2018-03-29T07:20:05.093Z,99205.73
2018-03-29T07:22:33.417Z,99218.23
2018-03-29T07:25:01.043Z,99209.58
2018-03-29T07:27:28.773Z,99218.36
2018-03-29T07:29:56.225Z,99219.55
2018-03-29T07:32:24.560Z,99222.63
2018-03-29T07:34:52.541Z,99217.95
2018-03-29T07:37:22.797Z,99232.44
2018-03-29T07:39:50.351Z,99226.66
2018-03-29T07:42:17.904Z,99230.69
2018-03-29T07:44:45.439Z,99226.84
2018-03-29T07:47:12.945Z,99229.86
2018-03-29T07:49:40.418Z,99245.75
2018-03-29T07:52:07.946Z,99247.36
2018-03-29T07:54:35.390Z,99249.06
2018-03-29T07:57:02.861Z,99251.17
2018-03-29T07:59:30.299Z,99253.09
2018-03-29T08:02:02.728Z,99272.45
2018-03-29T08:04:30.198Z,99273.89
2018-03-29T08:06:57.737Z,99275.27
2018-03-29T08:09:25.258Z,99275.68
2018-03-29T08:11:52.770Z,99272.75
2018-03-29T08:14:20.357Z,99276.81
2018-03-29T08:16:47.791Z,99275.70
2018-03-29T08:19:15.337Z,99275.31
2018-03-29T08:21:42.844Z,99284.70
2018-03-29T08:24:10.336Z,99272.68
2018-03-29T08:26:37.801Z,99283.63
2018-03-29T08:29:05.341Z,99278.50
2018-03-29T08:31:32.889Z,99278.06
2018-03-29T08:34:00.354Z,99282.54
2018-03-29T08:36:27.879Z,99276.78
2018-03-29T08:38:56.086Z,99279.73
2018-03-29T08:41:24.690Z,99280.00
2018-03-29T08:46:44.941Z,99282.43
2018-03-29T08:49:12.439Z,99276.11
2018-03-29T08:51:40.198Z,99274.98
2018-03-29T08:54:07.635Z,99271.88
2018-03-29T08:56:35.121Z,99268.65
2018-03-29T08:59:02.559Z,99268.33
2018-03-29T09:01:30.156Z,99273.83
2018-03-29T09:03:58.212Z,99280.11
2018-03-29T09:06:25.660Z,99281.27
2018-03-29T09:08:53.154Z,99277.11
2018-03-29T09:11:21.661Z,99282.33
2018-03-29T09:13:49.088Z,99278.05
2018-03-29T09:16:17.260Z,99278.08
2018-03-29T09:18:44.826Z,99280.62
2018-03-29T09:21:12.386Z,99274.59
2018-03-29T09:23:39.850Z,99265.67
2018-03-29T09:26:07.356Z,99266.20
2018-03-29T09:28:34.810Z,99272.69
2018-03-29T09:31:02.307Z,99260.16
2018-03-29T09:36:32.566Z,99282.74
2018-03-29T09:39:00.073Z,99305.61
2018-03-29T09:41:28.479Z,99292.35
2018-03-29T09:46:57.988Z,99311.47
2018-03-29T09:49:25.560Z,99313.08
2018-03-29T09:52:02.678Z,99310.55
2018-03-29T09:54:30.148Z,99310.30
2018-03-29T09:56:57.602Z,99312.40
2018-03-29T09:59:25.062Z,99315.31
2018-03-29T10:01:57.604Z,99326.42
2018-03-29T10:04:25.060Z,99314.82
2018-03-29T10:06:58.289Z,99318.96
2018-03-29T10:09:25.712Z,99324.11
2018-03-29T10:11:53.206Z,99317.14
2018-03-29T10:14:20.660Z,99312.83
2018-03-29T10:16:48.168Z,99310.80
2018-03-29T10:19:15.632Z,99321.23
2018-03-29T10:21:43.154Z,99318.08
2018-03-29T10:24:10.926Z,99325.21
2018-03-29T10:26:38.620Z,99315.11
2018-03-29T10:29:06.310Z,99320.19
2018-03-29T10:31:33.816Z,99316.84
2018-03-29T10:34:01.590Z,99294.06
2018-03-29T10:36:29.068Z,99311.55
2018-03-29T10:38:56.580Z,99311.53
2018-03-29T10:41:24.137Z,99313.43
2018-03-29T10:43:51.761Z,99313.77
2018-03-29T10:46:19.344Z,99328.16
2018-03-29T10:48:46.820Z,99313.42
2018-03-29T10:51:14.478Z,99324.02
2018-03-29T10:53:41.946Z,99318.61
2018-03-29T10:56:09.412Z,99317.44
2018-03-29T10:58:36.924Z,99326.01
2018-03-29T11:01:04.414Z,99315.77
2018-03-29T11:03:31.876Z,99319.79
2018-03-29T11:05:59.318Z,99318.61
2018-03-29T11:08:26.768Z,99327.17
2018-03-29T11:10:54.265Z,99330.91
2018-03-29T11:13:21.750Z,99336.39
2018-03-29T11:15:49.367Z,99324.73
2018-03-29T11:18:16.910Z,99329.61
2018-03-29T11:20:44.384Z,99332.36
2018-03-29T11:23:11.824Z,99339.91
2018-03-29T11:25:39.313Z,99331.58
2018-03-29T11:28:06.836Z,99339.36
2018-03-29T11:30:34.316Z,99335.63
2018-03-29T11:33:01.935Z,99321.11
2018-03-29T11:35:29.632Z,99319.50
2018-03-29T11:37:57.315Z,99319.38
2018-03-29T11:40:25.621Z,99320.04
2018-03-29T11:42:53.294Z,99333.20
2018-03-29T11:45:20.786Z,99332.77
2018-03-29T11:47:48.969Z,99329.03
2018-03-29T11:50:16.479Z,99332.85
2018-03-29T11:52:44.034Z,99332.23
2018-03-29T11:55:11.547Z,99328.70
2018-03-29T11:57:39.268Z,99334.81
2018-03-29T12:00:07.750Z,99334.27
2018-03-29T12:02:35.245Z,99335.69
2018-03-29T12:05:02.779Z,99334.36
2018-03-29T12:07:30.291Z,99338.87
2018-03-29T12:09:58.605Z,99338.33
2018-03-29T12:12:27.125Z,99342.05
2018-03-29T12:14:55.310Z,99341.40
2018-03-29T12:17:22.910Z,99343.00
2018-03-29T12:19:50.371Z,99341.69
2018-03-29T12:22:17.898Z,99346.67
2018-03-29T12:24:45.749Z,99342.02
2018-03-29T12:27:17.961Z,99354.34
2018-03-29T12:29:45.472Z,99350.52
2018-03-29T12:32:13.021Z,99347.30
2018-03-29T12:34:42.701Z,99352.37
2018-03-29T12:37:10.919Z,99347.11
2018-03-29T12:39:39.119Z,99345.34
2018-03-29T12:42:08.369Z,99348.11
2018-03-29T12:44:40.552Z,99347.25
2018-03-29T12:47:08.020Z,99346.66
2018-03-29T12:49:35.538Z,99344.72
2018-03-29T12:52:08.061Z,99340.89
2018-03-29T12:54:47.304Z,99341.41
2018-03-29T12:57:26.784Z,99344.36
2018-03-29T12:59:54.465Z,99349.01
2018-03-29T13:02:22.258Z,99352.69
2018-03-29T13:04:50.715Z,99351.66
2018-03-29T13:07:18.233Z,99356.22
2018-03-29T13:09:45.724Z,99340.22
2018-03-29T13:12:13.214Z,99344.09
2018-03-29T13:14:40.967Z,99343.45
2018-03-29T13:17:08.523Z,99345.73
2018-03-29T13:19:37.693Z,99352.36
2018-03-29T13:22:05.418Z,99341.91
2018-03-29T13:24:32.945Z,99339.82
2018-03-29T13:27:00.513Z,99341.95
2018-03-29T13:29:29.147Z,99332.09
2018-03-29T13:31:56.690Z,99333.02
2018-03-29T13:34:24.211Z,99335.55
2018-03-29T13:36:51.665Z,99332.91
2018-03-29T13:39:19.311Z,99332.22
2018-03-29T13:41:46.860Z,99330.05
2018-03-29T13:44:14.311Z,99327.34
2018-03-29T13:46:41.784Z,99327.86
2018-03-29T13:49:10.235Z,99327.06
2018-03-29T13:51:38.079Z,99323.23
2018-03-29T13:54:05.685Z,99319.50
2018-03-29T13:56:33.982Z,99314.35
2018-03-29T13:59:02.233Z,99314.65
2018-03-29T14:01:29.795Z,99311.34
2018-03-29T14:03:57.971Z,99320.97
2018-03-29T14:06:25.456Z,99316.95
2018-03-29T14:08:52.909Z,99311.80
2018-03-29T14:11:20.428Z,99311.55
2018-03-29T14:13:47.892Z,99321.47
2018-03-29T14:16:15.367Z,99311.38
2018-03-29T14:18:43.532Z,99311.22
2018-03-29T14:21:11.035Z,99309.24
2018-03-29T14:23:38.556Z,99311.56
2018-03-29T14:26:06.033Z,99306.29
2018-03-29T14:28:33.475Z,99302.36
2018-03-29T14:31:01.003Z,99307.39
2018-03-29T14:33:28.570Z,99308.42
2018-03-29T14:35:56.111Z,99298.80
2018-03-29T14:38:23.585Z,99301.84
2018-03-29T14:40:52.039Z,99296.00
2018-03-29T14:43:19.515Z,99289.02
2018-03-29T14:45:47.463Z,99294.97
2018-03-29T14:48:15.231Z,99296.62
2018-03-29T14:50:42.980Z,99294.21
2018-03-29T14:53:10.435Z,99289.45
2018-03-29T14:55:37.927Z,99285.89
2018-03-29T14:58:05.420Z,99296.81
2018-03-29T15:00:33.653Z,99289.71
2018-03-29T15:03:01.125Z,99285.34
2018-03-29T15:05:28.579Z,99289.39
2018-03-29T15:07:56.804Z,99291.03
2018-03-29T15:10:24.321Z,99300.61
2018-03-29T15:12:51.835Z,99300.11
2018-03-29T15:15:19.363Z,99279.55
2018-03-29T15:17:46.865Z,99298.94
2018-03-29T15:20:14.327Z,99297.88
2018-03-29T15:22:44.055Z,99300.42
2018-03-29T15:25:12.384Z,99300.77
2018-03-29T15:27:39.878Z,99299.42
2018-03-29T15:30:07.445Z,99300.55
2018-03-29T15:32:35.203Z,99306.84
2018-03-29T15:35:02.664Z,99307.25
2018-03-29T15:37:30.293Z,99314.74
2018-03-29T15:39:57.785Z,99317.53
2018-03-29T15:42:25.282Z,99320.58
2018-03-29T15:44:52.793Z,99315.91
2018-03-29T15:47:20.357Z,99314.45
2018-03-29T15:49:47.826Z,99310.62
2018-03-29T15:52:20.323Z,99314.34
2018-03-29T15:54:47.835Z,99322.66
2018-03-29T15:57:15.310Z,99324.07
2018-03-29T15:59:42.831Z,99323.56
2018-03-29T16:02:10.440Z,99325.45
2018-03-29T16:04:37.954Z,99330.13
2018-03-29T16:07:05.752Z,99331.78
2018-03-29T16:09:33.255Z,99336.12
2018-03-29T16:12:20.221Z,99338.44
2018-03-29T16:14:47.836Z,99341.28
2018-03-29T16:17:15.349Z,99343.31
2018-03-29T16:19:42.948Z,99342.88
2018-03-29T16:25:08.424Z,99341.02
2018-03-29T16:27:35.900Z,99341.56
2018-03-29T16:30:03.463Z,99341.95
2018-03-29T16:32:31.715Z,99353.29
2018-03-29T16:34:59.226Z,99358.48
2018-03-29T16:37:27.896Z,99363.38
2018-03-29T16:39:55.376Z,99378.64
2018-03-29T16:42:23.160Z,99391.36
2018-03-29T16:44:50.709Z,99420.28
2018-03-29T16:47:18.264Z,99436.98
2018-03-29T16:49:45.795Z,99436.47
2018-03-29T16:52:13.305Z,99445.64
2018-03-29T16:54:40.792Z,99448.31
2018-03-29T16:57:08.318Z,99466.70
2018-03-29T16:59:36.060Z,99478.48
2018-03-29T17:02:04.269Z,99485.72
2018-03-29T17:04:31.992Z,99486.20
2018-03-29T17:06:59.808Z,99490.28
2018-03-29T17:09:27.282Z,99480.99
2018-03-29T17:11:54.782Z,99447.25
2018-03-29T17:14:22.856Z,99445.53
2018-03-29T17:16:50.568Z,99450.89
2018-03-29T17:19:18.037Z,99452.94
2018-03-29T17:21:45.550Z,99445.25
2018-03-29T17:24:13.188Z,99447.85
2018-03-29T17:26:40.864Z,99455.33
2018-03-29T17:29:09.322Z,99453.66
2018-03-29T17:31:37.099Z,99453.27
2018-03-29T17:34:14.234Z,99450.49
2018-03-29T17:36:41.706Z,99454.77
2018-03-29T17:39:09.218Z,99455.34
2018-03-29T17:41:36.733Z,99465.08
2018-03-29T17:44:04.828Z,99461.88
2018-03-29T17:46:32.910Z,99470.95
2018-03-29T17:49:00.470Z,99475.13
2018-03-29T17:51:28.106Z,99479.56
2018-03-29T17:53:55.662Z,99483.95
2018-03-29T17:56:23.134Z,99489.62
2018-03-29T17:58:50.844Z,99491.23
2018-03-29T18:03:51.895Z,99487.40
2018-03-29T18:06:20.116Z,99495.58
2018-03-29T18:08:50.980Z,99493.59
2018-03-29T18:11:18.536Z,99501.27
2018-03-29T18:13:56.324Z,99507.60
2018-03-29T18:16:24.585Z,99512.20
2018-03-29T18:18:52.142Z,99513.66
2018-03-29T18:21:19.634Z,99508.78
2018-03-29T18:35:16.855Z,99535.34
2018-03-29T18:37:45.008Z,99527.03
2018-03-29T18:40:12.690Z,99531.28
2018-03-29T18:42:40.428Z,99538.16
2018-03-29T18:45:12.380Z,99534.34
2018-03-29T18:47:41.991Z,99536.44
2018-03-29T18:50:09.547Z,99536.44
2018-03-29T18:52:37.141Z,99540.41
2018-03-29T18:55:04.625Z,99534.09
2018-03-29T18:57:32.743Z,99534.09
2018-03-29T19:00:00.198Z,99530.02
2018-03-29T19:02:27.700Z,99532.91
2018-03-29T19:04:55.206Z,99529.86
2018-03-29T19:07:22.747Z,99536.84
2018-03-29T19:09:51.090Z,99533.66
2018-03-29T19:12:18.587Z,99539.63
2018-03-29T19:14:47.036Z,99543.47
2018-03-29T19:17:15.244Z,99542.42
2018-03-29T19:19:42.710Z,99546.63
2018-03-29T19:22:10.378Z,99554.93
2018-03-29T19:24:38.344Z,99548.46
2018-03-29T19:27:05.860Z,99550.20
2018-03-29T19:29:33.448Z,99550.61
2018-03-29T19:32:01.034Z,99555.08
2018-03-29T19:34:28.526Z,99561.52
2018-03-29T19:36:56.567Z,99563.52
2018-03-29T19:39:24.256Z,99573.80
2018-03-29T19:41:51.703Z,99571.31
2018-03-29T19:44:19.273Z,99565.00
2018-03-29T19:46:46.744Z,99568.03
2018-03-29T19:49:14.700Z,99569.22
2018-03-29T19:51:42.204Z,99567.23
2018-03-29T19:54:09.734Z,99565.66
2018-03-29T19:56:37.406Z,99570.79
2018-03-29T19:59:04.880Z,99574.75
2018-03-29T20:01:33.154Z,99576.47
2018-03-29T20:04:00.618Z,99574.36
2018-03-29T20:06:28.093Z,99572.78
2018-03-29T20:08:55.636Z,99572.92
2018-03-29T20:11:24.160Z,99579.55
2018-03-29T20:13:51.711Z,99572.42
2018-03-29T20:16:19.449Z,99571.24
2018-03-29T20:18:46.906Z,99579.02
2018-03-29T20:21:15.278Z,99583.11
2018-03-29T20:23:42.812Z,99579.43
2018-03-29T20:26:11.088Z,99580.61
2018-03-29T20:28:38.622Z,99580.48
2018-03-29T20:31:06.096Z,99582.48
2018-03-29T20:33:33.802Z,99588.27
2018-03-29T20:36:01.267Z,99583.41
2018-03-29T20:38:28.776Z,99579.06
2018-03-29T20:40:56.274Z,99579.47
2018-03-29T20:43:23.759Z,99588.30
2018-03-29T20:45:52.035Z,99595.42
2018-03-29T20:48:20.262Z,99593.97
2018-03-29T20:50:49.558Z,99597.41
2018-03-29T20:53:17.136Z,99603.33
2018-03-29T20:55:46.044Z,99600.05
2018-03-29T20:58:13.580Z,99603.06
2018-03-29T21:00:41.096Z,99601.47
2018-03-29T21:03:08.806Z,99597.41
2018-03-29T21:05:36.334Z,99597.52
2018-03-29T21:08:03.852Z,99600.56
2018-03-29T21:10:31.396Z,99592.53
2018-03-29T21:12:59.026Z,99591.20
2018-03-29T21:15:26.746Z,99589.52
2018-03-29T21:17:54.304Z,99593.06
2018-03-29T21:20:22.503Z,99600.30
2018-03-29T21:22:50.002Z,99593.47
2018-03-29T21:25:17.533Z,99601.61
2018-03-29T21:27:45.055Z,99596.88
2018-03-29T21:30:12.847Z,99601.61
2018-03-29T21:32:40.459Z,99603.88
2018-03-29T21:35:07.961Z,99607.16
2018-03-29T21:37:35.929Z,99613.47
2018-03-29T21:40:03.394Z,99608.09
2018-03-29T21:42:30.905Z,99601.38
2018-03-29T21:44:58.399Z,99607.02
2018-03-29T21:47:26.778Z,99613.09
2018-03-29T21:49:54.277Z,99610.86
2018-03-29T21:52:21.786Z,99615.73
2018-03-29T21:54:49.318Z,99614.41
2018-03-29T21:57:16.869Z,99622.96
2018-03-29T21:59:45.755Z,99629.17
2018-03-29T22:02:23.952Z,99623.23
2018-03-29T22:04:52.252Z,99623.23
2018-03-29T22:07:19.705Z,99625.73
2018-03-29T22:09:47.457Z,99623.09
2018-03-29T22:12:20.785Z,99624.69
2018-03-29T22:14:48.366Z,99623.50
2018-03-29T22:17:15.825Z,99626.54
2018-03-29T22:19:43.367Z,99623.09
2018-03-29T22:22:10.953Z,99625.87
2018-03-29T22:24:38.536Z,99627.99
2018-03-29T22:27:06.773Z,99623.09
2018-03-29T22:29:35.592Z,99625.20
2018-03-29T22:32:03.086Z,99625.22
2018-03-29T22:34:30.789Z,99622.59
2018-03-29T22:36:58.290Z,99612.56
2018-03-29T22:39:25.818Z,99618.09
2018-03-29T22:41:53.311Z,99625.22
2018-03-29T22:44:20.883Z,99621.77
2018-03-29T22:46:48.429Z,99623.48
2018-03-29T22:49:15.951Z,99635.73
2018-03-29T22:51:43.651Z,99638.23
2018-03-29T22:54:16.187Z,99633.61
2018-03-29T22:56:43.715Z,99637.06
2018-03-29T22:59:11.187Z,99642.58
2018-03-29T23:01:38.705Z,99645.55
2018-03-29T23:04:06.150Z,99652.85
2018-03-29T23:06:33.657Z,99650.09
2018-03-29T23:09:01.137Z,99660.76
2018-03-29T23:11:28.663Z,99660.48
2018-03-29T23:13:56.109Z,99657.13
2018-03-29T23:16:23.577Z,99663.70
2018-03-29T23:18:51.067Z,99662.02
2018-03-29T23:21:18.750Z,99673.05
2018-03-29T23:23:47.288Z,99676.62
2018-03-29T23:26:15.644Z,99676.06
2018-03-29T23:28:43.151Z,99676.87
2018-03-29T23:31:10.632Z,99672.77
2018-03-29T23:33:38.149Z,99679.07
2018-03-29T23:36:05.611Z,99686.30
2018-03-29T23:38:33.105Z,99693.16
2018-03-29T23:41:00.572Z,99698.27
2018-03-29T23:43:28.083Z,99696.81
2018-03-29T23:45:55.589Z,99697.34
2018-03-29T23:48:23.055Z,99695.39
2018-03-29T23:50:50.547Z,99692.23
2018-03-29T23:53:17.988Z,99691.06
2018-03-29T23:55:45.514Z,99693.02
2018-03-29T23:58:17.789Z,99689.74
